Observations for Trim Patrick St
| Time | AQI | Temp °C | Hum % | Pres Pa | CO μg/m³ | H₂S μg/m³ | NO μg/m³ | NO₂ μg/m³ | O₃ μg/m³ | SO₂ μg/m³ | PM1 μg/m³ | PM2.5 μg/m³ | PM10 μg/m³ |
|---|---|---|---|---|---|---|---|---|---|---|---|---|---|
| Friday 31 July 2026 | |||||||||||||
| 01:08 | 2 | 13.2 | 68 | 84,685 | 0.19 | 3.49 | 3.56 | 12.5 | 42.47 | 0 | 2 | 5.99 | 6.59 |
| 01:06 | 2 | 13.3 | 68 | 82,736 | 0.2 | 3.67 | 3.56 | 15.54 | 45.37 | 0 | 2.86 | 6.71 | 7.38 |
| 01:04 | 2 | 13.3 | 68 | 81,445 | 0.2 | 3.49 | 3.56 | 12.94 | 47.07 | 0 | 2 | 6 | 6.6 |
| 01:03 | 2 | 13.3 | 68 | 80,937 | 0.2 | 3.6 | 3.52 | 20.82 | 45.68 | 0 | 2 | 6.02 | 6.62 |
| 00:58 | 2 | 13.5 | 68 | 79,280 | 0.19 | 2.9 | 3.32 | 11.65 | 44.57 | 0 | 2 | 6.03 | 6.63 |
| 00:57 | 2 | 13.5 | 68 | 79,072 | 0.19 | 3.42 | 3.3 | 16.68 | 47.03 | 0 | 2.86 | 7.48 | 8.23 |
| 00:56 | 2 | 13.5 | 68 | 78,806 | 0.19 | 3.13 | 3.36 | 16.66 | 46.05 | 0 | 2 | 6.04 | 6.64 |
| 00:55 | 2 | 13.5 | 68 | 78,509 | 0.18 | 3.19 | 3.36 | 16.31 | 44.08 | 0 | 3.71 | 6.76 | 7.44 |
| 00:54 | 2 | 13.5 | 68 | 78,269 | 0.19 | 4.84 | 3.47 | 15.75 | 51.97 | 0 | 2.86 | 6.04 | 6.64 |
| 00:53 | 2 | 13.6 | 67 | 78,082 | 0.18 | 4.07 | 3.38 | 20.96 | 45.8 | 0 | 2 | 6.06 | 6.67 |
| 00:52 | 2 | 13.6 | 67 | 77,874 | 0.19 | 3.94 | 3.24 | 13.82 | 44.45 | 0 | 2.86 | 6.78 | 7.46 |
| 00:51 | 3 | 13.6 | 67 | 77,707 | 0.18 | 3.78 | 3.26 | 16.87 | 46.6 | 0 | 3.71 | 7.52 | 8.27 |
| 00:50 | 2 | 13.6 | 67 | 77,551 | 0.18 | 4.77 | 3.11 | 17.24 | 50.31 | 0 | 2 | 6.06 | 6.67 |
| 00:49 | 2 | 13.6 | 67 | 77,408 | 0.18 | 4.17 | 3.08 | 17.62 | 48.73 | 0 | 2.86 | 6.79 | 7.47 |
| 00:48 | 2 | 13.7 | 67 | 77,294 | 0.18 | 3.89 | 3.22 | 14.98 | 47.05 | 0 | 2 | 5.34 | 5.88 |
| 00:47 | 2 | 13.7 | 67 | 77,211 | 0.17 | 3.53 | 3.39 | 17.1 | 47.65 | 0 | 2 | 6.08 | 6.69 |
| 00:46 | 2 | 13.7 | 67 | 77,109 | 0.18 | 3.29 | 3.19 | 12.78 | 48.05 | 0 | 2 | 7.53 | 8.28 |
| 00:45 | 2 | 13.8 | 67 | 77,058 | 0.16 | 3.55 | 3.12 | 11.25 | 43.75 | 0 | 2.86 | 8.27 | 9.09 |
| 00:44 | 2 | 13.8 | 67 | 77,011 | 0.17 | 4.12 | 3.15 | 15.94 | 49.63 | 0 | 3.71 | 7.54 | 8.29 |
| 00:43 | 2 | 13.8 | 67 | 76,938 | 0.17 | 3.63 | 3.15 | 18.17 | 48.04 | 0 | 2.86 | 6.82 | 7.5 |